createdAt,value
2022-12-18T00:02:15.934Z,95733.50
2022-12-18T00:05:19.004Z,95739.91
2022-12-18T00:08:22.014Z,95745.22
2022-12-18T00:11:27.159Z,95746.03
2022-12-18T00:14:30.183Z,95750.56
2022-12-18T00:17:34.639Z,95749.75
2022-12-18T00:20:41.980Z,95756.97
2022-12-18T00:23:46.713Z,95760.41
2022-12-18T00:26:49.711Z,95762.00
2022-12-18T00:29:52.833Z,95757.75
2022-12-18T00:32:57.262Z,95763.09
2022-12-18T00:36:03.268Z,95766.03
2022-12-18T00:39:07.535Z,95773.72
2022-12-18T00:42:30.501Z,95777.47
2022-12-18T00:45:33.835Z,95779.06
2022-12-18T00:48:38.289Z,95778.28
2022-12-18T00:51:41.330Z,95775.66
2022-12-18T00:54:44.356Z,95793.47
2022-12-18T00:57:47.403Z,95793.47
2022-12-18T01:00:50.492Z,95801.44
2022-12-18T01:03:55.017Z,95787.34
2022-12-18T01:06:58.042Z,95790.78
2022-12-18T01:10:01.103Z,95802.53
2022-12-18T01:13:04.116Z,95812.09
2022-12-18T01:16:07.347Z,95807.84
2022-12-18T01:19:12.535Z,95793.59
2022-12-18T01:22:15.572Z,95810.50
2022-12-18T01:25:18.776Z,95806.28
2022-12-18T01:28:21.906Z,95799.41
2022-12-18T01:31:27.223Z,95814.81
2022-12-18T01:34:31.729Z,95829.16
2022-12-18T01:37:34.823Z,95823.84
2022-12-18T01:40:38.459Z,95831.03
2022-12-18T01:43:52.149Z,95833.69
2022-12-18T01:46:55.223Z,95835.56
2022-12-18T01:50:02.612Z,95820.75
2022-12-18T01:53:08.571Z,95838.22
2022-12-18T01:56:15.839Z,95835.84
2022-12-18T01:59:19.001Z,95836.34
2022-12-18T02:02:22.834Z,95837.50
2022-12-18T02:05:36.216Z,95852.63
2022-12-18T02:08:46.121Z,95852.34
2022-12-18T02:11:55.197Z,95855.84
2022-12-18T02:15:05.033Z,95865.94
2022-12-18T02:18:14.287Z,95846.06
2022-12-18T02:21:29.601Z,95857.16
2022-12-18T02:24:39.284Z,95850.06
2022-12-18T02:27:46.453Z,95865.16
2022-12-18T02:30:51.291Z,95865.16
2022-12-18T02:33:56.852Z,95866.22
2022-12-18T02:37:02.741Z,95868.88
2022-12-18T02:40:07.625Z,95869.16
2022-12-18T02:43:13.976Z,95856.44
2022-12-18T02:46:29.575Z,95872.34
2022-12-18T02:49:38.940Z,95876.88
2022-12-18T02:52:51.679Z,95887.53
2022-12-18T02:56:04.375Z,95875.84
2022-12-18T02:59:13.988Z,95892.06
2022-12-18T03:02:24.099Z,95896.31
2022-12-18T03:05:33.547Z,95903.50
2022-12-18T03:08:40.735Z,95906.22
2022-12-18T03:12:06.393Z,95908.84
2022-12-18T03:15:17.848Z,95909.91
2022-12-18T03:18:25.869Z,95905.38
2022-12-18T03:21:34.416Z,95908.03
2022-12-18T03:24:40.647Z,95921.66
2022-12-18T03:27:49.547Z,95923.22
2022-12-18T03:30:58.809Z,95917.09
2022-12-18T03:34:06.445Z,95931.50
2022-12-18T03:37:09.735Z,95935.47
2022-12-18T03:40:13.637Z,95933.09
2022-12-18T03:43:22.805Z,95930.44
2022-12-18T03:46:32.521Z,95933.09
2022-12-18T03:49:40.596Z,95923.81
2022-12-18T03:52:51.193Z,95952.81
2022-12-18T03:55:54.779Z,95959.44
2022-12-18T03:59:00.927Z,95955.47
2022-12-18T04:02:09.183Z,95954.41
2022-12-18T04:05:14.244Z,95944.81
2022-12-18T04:08:17.608Z,95954.41
2022-12-18T04:11:20.624Z,95952.81
2022-12-18T04:14:23.700Z,95958.13
2022-12-18T04:17:28.214Z,95971.44
2022-12-18T04:20:31.240Z,95970.66
2022-12-18T04:23:34.272Z,95977.06
2022-12-18T04:26:37.302Z,95978.38
2022-12-18T04:29:40.370Z,95960.31
2022-12-18T04:32:49.039Z,95942.34
2022-12-18T04:35:55.036Z,95986.63
2022-12-18T04:38:58.087Z,95991.16
2022-12-18T04:42:01.071Z,95989.06
2022-12-18T04:45:04.359Z,95994.63
2022-12-18T04:48:09.116Z,96010.59
2022-12-18T04:51:12.387Z,96011.69
2022-12-18T04:54:15.396Z,96002.91
2022-12-18T04:57:19.089Z,96015.13
2022-12-18T05:00:23.112Z,96013.03
2022-12-18T05:03:27.509Z,96015.41
2022-12-18T05:06:30.535Z,96026.88
2022-12-18T05:09:33.508Z,96023.41
2022-12-18T05:12:56.509Z,96030.31
2022-12-18T05:16:00.888Z,96040.97
2022-12-18T05:19:05.391Z,96042.84
2022-12-18T05:22:08.456Z,96016.59
2022-12-18T05:25:11.935Z,96050.84
2022-12-18T05:28:14.928Z,96053.50
2022-12-18T05:31:18.112Z,96059.91
2022-12-18T05:34:22.599Z,96063.34
2022-12-18T05:37:25.664Z,96066.03
2022-12-18T05:40:28.636Z,96058.81
2022-12-18T05:43:33.004Z,96070.56
2022-12-18T05:46:36.067Z,96071.34
2022-12-18T05:49:40.622Z,96078.53
2022-12-18T05:52:43.748Z,96088.13
2022-12-18T05:55:47.633Z,96084.66
2022-12-18T05:58:54.030Z,96103.31
2022-12-18T06:01:57.096Z,96110.50
2022-12-18T06:05:01.617Z,96098.03
2022-12-18T06:08:04.952Z,96110.50
2022-12-18T06:11:07.994Z,96107.84
2022-12-18T06:14:12.233Z,96102.25
2022-12-18T06:17:15.271Z,96106.50
2022-12-18T06:20:19.849Z,96116.91
2022-12-18T06:23:22.964Z,96115.03
2022-12-18T06:26:28.324Z,96135.25
2022-12-18T06:29:31.697Z,96128.88
2022-12-18T06:32:34.879Z,96140.88
2022-12-18T06:35:39.286Z,96140.88
2022-12-18T06:38:44.135Z,96144.31
2022-12-18T06:41:47.212Z,96143.53
2022-12-18T06:44:50.314Z,96156.06
2022-12-18T06:47:53.396Z,96165.63
2022-12-18T06:50:57.835Z,96144.88
2022-12-18T06:54:00.808Z,96154.97
2022-12-18T06:57:03.871Z,96160.31
2022-12-18T07:00:08.560Z,96164.84
2022-12-18T07:03:11.670Z,96160.56
2022-12-18T07:06:19.546Z,96159.50
2022-12-18T07:09:22.764Z,96166.72
2022-12-18T07:12:25.816Z,96166.72
2022-12-18T07:15:29.052Z,96172.81
2022-12-18T07:18:32.099Z,96172.81
2022-12-18T07:21:36.550Z,96172.81
2022-12-18T07:24:39.516Z,96180.81
2022-12-18T07:27:42.600Z,96170.41
2022-12-18T07:30:45.671Z,96179.19
2022-12-18T07:33:49.103Z,96187.19
2022-12-18T07:36:53.571Z,96190.91
2022-12-18T07:39:56.533Z,96191.19
2022-12-18T07:42:59.575Z,96200.50
2022-12-18T07:46:02.720Z,96200.50
2022-12-18T07:49:05.856Z,96193.91
2022-12-18T07:52:10.627Z,96207.69
2022-12-18T07:55:13.628Z,96206.66
2022-12-18T07:58:16.621Z,96209.31
2022-12-18T08:01:19.717Z,96216.47
2022-12-18T08:04:24.434Z,96225.31
2022-12-18T08:07:28.822Z,96227.97
2022-12-18T08:10:31.813Z,96236.44
2022-12-18T08:13:34.796Z,96243.09
2022-12-18T08:16:38.015Z,96249.50
2022-12-18T08:19:41.002Z,96249.22
2022-12-18T08:22:45.365Z,96254.53
2022-12-18T08:25:48.672Z,96253.22
2022-12-18T08:28:52.095Z,96263.34
2022-12-18T08:31:55.150Z,96235.69
2022-12-18T08:34:58.185Z,96262.25
2022-12-18T08:38:02.601Z,96264.41
2022-12-18T08:41:07.677Z,96268.66
2022-12-18T08:44:28.146Z,96266.78
2022-12-18T08:47:31.119Z,96267.06
2022-12-18T08:50:34.116Z,96263.06
2022-12-18T08:53:39.140Z,96266.81
2022-12-18T08:56:42.448Z,96259.88
2022-12-18T08:59:45.470Z,96257.22
2022-12-18T09:02:48.625Z,96263.63
2022-12-18T09:05:52.675Z,96253.78
2022-12-18T09:08:57.152Z,96256.44
2022-12-18T09:12:00.237Z,96260.97
2022-12-18T09:15:03.288Z,96254.84
2022-12-18T09:18:06.376Z,96252.16
2022-12-18T09:21:13.942Z,96260.09
2022-12-18T09:24:18.543Z,96263.28
2022-12-18T09:27:21.512Z,96261.19
2022-12-18T09:30:24.545Z,96262.50
2022-12-18T09:33:27.675Z,96262.50
2022-12-18T09:36:31.049Z,96260.63
2022-12-18T09:39:35.454Z,96272.59
2022-12-18T09:42:38.962Z,96277.13
2022-12-18T09:45:46.497Z,96271.03
2022-12-18T09:48:54.577Z,96272.38
2022-12-18T09:52:01.983Z,96269.97
2022-12-18T09:55:13.670Z,96271.31
2022-12-18T09:58:22.706Z,96266.00
2022-12-18T10:01:31.992Z,96272.38
2022-12-18T10:04:40.940Z,96263.34
2022-12-18T10:07:54.960Z,96270.00
2022-12-18T10:11:05.655Z,96270.00
2022-12-18T10:14:16.916Z,96266.53
2022-12-18T10:17:28.654Z,96270.28
2022-12-18T10:20:36.930Z,96272.13
2022-12-18T10:23:49.078Z,96262.81
2022-12-18T10:26:55.365Z,96276.94
2022-12-18T10:29:59.254Z,96282.78
2022-12-18T10:33:03.767Z,96262.81
2022-12-18T10:36:07.348Z,96259.09
2022-12-18T10:39:21.327Z,96273.50
2022-12-18T10:42:25.799Z,96267.09
2022-12-18T10:45:28.761Z,96267.09
2022-12-18T10:48:34.136Z,96260.97
2022-12-18T10:51:39.654Z,96268.97
2022-12-18T10:54:50.759Z,96260.97
2022-12-18T10:57:55.182Z,96266.56
2022-12-18T11:01:11.194Z,96267.09
2022-12-18T11:04:20.231Z,96260.16
2022-12-18T11:07:23.204Z,96257.50
2022-12-18T11:10:30.974Z,96254.84
2022-12-18T11:13:35.770Z,96260.16
2022-12-18T11:17:03.102Z,96263.38
2022-12-18T11:20:21.508Z,96263.91
2022-12-18T11:23:25.600Z,96265.78
2022-12-18T11:26:37.332Z,96278.28
2022-12-18T11:29:46.604Z,96269.22
2022-12-18T11:32:52.068Z,96263.09
2022-12-18T11:35:58.328Z,96271.91
2022-12-18T11:39:08.486Z,96271.91
2022-12-18T11:42:19.658Z,96271.09
2022-12-18T11:45:30.630Z,96264.97
2022-12-18T11:48:39.497Z,96270.31
2022-12-18T11:51:50.313Z,96279.88
2022-12-18T11:54:54.989Z,96269.50
2022-12-18T11:58:06.204Z,96279.88
2022-12-18T12:01:20.791Z,96275.63
2022-12-18T12:04:58.477Z,96278.28
2022-12-18T12:08:09.066Z,96276.19
2022-12-18T12:11:25.085Z,96272.00
2022-12-18T12:14:43.158Z,96263.22
2022-12-18T12:17:56.698Z,96276.53
2022-12-18T12:21:05.917Z,96271.47
2022-12-18T12:24:25.158Z,96275.69
2022-12-18T12:27:37.699Z,96258.66
2022-12-18T12:30:53.427Z,96271.97
2022-12-18T12:34:08.151Z,96284.75
2022-12-18T12:37:21.940Z,96269.34
2022-12-18T12:43:51.744Z,96290.34
2022-12-18T12:46:59.579Z,96278.88
2022-12-18T12:50:14.401Z,96283.06
2022-12-18T12:53:27.549Z,96280.06
2022-12-18T12:56:42.245Z,96291.75
2022-12-18T12:59:53.135Z,96287.25
2022-12-18T13:03:01.872Z,96299.97
2022-12-18T13:06:15.208Z,96305.84
2022-12-18T13:09:18.491Z,96293.56
2022-12-18T13:12:39.136Z,96310.34
2022-12-18T13:15:46.265Z,96309.50
2022-12-18T13:18:52.380Z,96303.91
2022-12-18T13:21:58.156Z,96308.94
2022-12-18T13:25:02.073Z,96305.72
2022-12-18T13:28:11.421Z,96307.59
2022-12-18T13:31:15.733Z,96314.28
2022-12-18T13:34:29.187Z,96324.16
2022-12-18T13:37:43.767Z,96328.41
2022-12-18T13:40:58.572Z,96311.94
2022-12-18T13:44:13.534Z,96323.06
2022-12-18T13:47:30.362Z,96337.47
2022-12-18T13:50:36.114Z,96340.97
2022-12-18T13:53:46.705Z,96349.25
2022-12-18T13:56:51.045Z,96356.44
2022-12-18T13:59:54.238Z,96357.00
2022-12-18T14:02:58.480Z,96356.19
2022-12-18T14:06:08.797Z,96359.16
2022-12-18T14:09:21.435Z,96361.81
2022-12-18T14:12:45.135Z,96357.00
2022-12-18T14:15:49.954Z,96354.59
2022-12-18T14:18:57.573Z,96358.59
2022-12-18T14:22:18.554Z,96360.75
2022-12-18T14:25:25.014Z,96363.69
2022-12-18T14:28:28.162Z,96369.28
2022-12-18T14:31:33.207Z,96371.94
2022-12-18T14:34:36.343Z,96372.50
2022-12-18T14:37:39.433Z,96365.03
2022-12-18T14:40:44.034Z,96367.41
2022-12-18T14:43:48.884Z,96372.72
2022-12-18T14:46:53.005Z,96374.84
2022-12-18T14:49:57.395Z,96371.38
2022-12-18T14:53:00.671Z,96379.34
2022-12-18T14:56:06.673Z,96371.34
2022-12-18T14:59:22.344Z,96378.25
2022-12-18T15:02:30.155Z,96383.59
2022-12-18T15:05:34.343Z,96378.25
2022-12-18T15:08:39.070Z,96385.47
2022-12-18T15:11:50.153Z,96381.72
2022-12-18T15:14:53.209Z,96385.19
2022-12-18T15:18:00.963Z,96384.13
2022-12-18T15:21:11.759Z,96371.63
2022-12-18T15:24:20.395Z,96369.25
2022-12-18T15:27:28.414Z,96392.66
2022-12-18T15:30:32.760Z,96391.03
2022-12-18T15:33:38.019Z,96403.59
2022-12-18T15:36:41.716Z,96393.75
2022-12-18T15:39:44.712Z,96406.00
2022-12-18T15:43:07.715Z,96413.72
2022-12-18T15:46:14.575Z,96404.16
2022-12-18T15:49:17.606Z,96420.66
2022-12-18T15:52:27.101Z,96418.78
2022-12-18T15:55:47.728Z,96422.78
2022-12-18T15:58:52.193Z,96420.91
2022-12-18T16:01:55.382Z,96435.06
2022-12-18T16:04:58.716Z,96441.97
2022-12-18T16:08:01.802Z,96446.25
2022-12-18T16:11:04.977Z,96442.78
2022-12-18T16:14:17.674Z,96449.19
2022-12-18T16:17:21.063Z,96446.81
2022-12-18T16:20:24.715Z,96460.91
2022-12-18T16:23:28.204Z,96456.13
2022-12-18T16:26:34.257Z,96459.81
2022-12-18T16:29:38.703Z,96458.75
2022-12-18T16:32:41.756Z,96441.19
2022-12-18T16:35:44.831Z,96445.16
2022-12-18T16:38:47.949Z,96462.50
2022-12-18T16:41:50.999Z,96474.50
2022-12-18T16:44:55.412Z,96473.72
2022-12-18T16:47:58.488Z,96481.94
2022-12-18T16:51:03.833Z,96479.28
2022-12-18T16:54:10.927Z,96487.25
2022-12-18T16:57:17.899Z,96497.66
2022-12-18T17:00:22.571Z,96508.06
2022-12-18T17:03:25.706Z,96511.78
2022-12-18T17:06:30.623Z,96504.63
2022-12-18T17:09:33.641Z,96518.47
2022-12-18T17:12:37.451Z,96523.53
2022-12-18T17:15:41.982Z,96528.59
2022-12-18T17:18:45.793Z,96522.22
2022-12-18T17:21:51.161Z,96536.59
2022-12-18T17:24:54.181Z,96535.81
2022-12-18T17:27:57.272Z,96539.25
2022-12-18T17:31:02.686Z,96545.41
2022-12-18T17:34:05.952Z,96546.22
2022-12-18T17:37:09.238Z,96549.13
2022-12-18T17:40:12.873Z,96543.78
2022-12-18T17:43:15.860Z,96537.94
2022-12-18T17:46:20.371Z,96538.72
2022-12-18T17:49:23.509Z,96519.31
2022-12-18T17:52:26.595Z,96533.94
2022-12-18T17:55:30.489Z,96530.47
2022-12-18T17:58:34.225Z,96524.91
2022-12-18T18:01:44.603Z,96538.53
2022-12-18T18:04:48.604Z,96532.13
2022-12-18T18:07:51.662Z,96527.06
2022-12-18T18:11:16.428Z,96546.25
2022-12-18T18:14:20.461Z,96539.59
2022-12-18T18:17:24.858Z,96546.25
2022-12-18T18:20:30.383Z,96552.66
2022-12-18T18:23:33.621Z,96548.63
2022-12-18T18:26:37.882Z,96547.84
2022-12-18T18:29:41.325Z,96558.00
2022-12-18T18:32:45.825Z,96573.72
2022-12-18T18:35:56.030Z,96562.50
2022-12-18T18:39:01.309Z,96552.13
2022-12-18T18:42:04.961Z,96571.28
2022-12-18T18:45:08.818Z,96559.84
2022-12-18T18:48:14.168Z,96551.84
2022-12-18T18:51:21.384Z,96575.84
2022-12-18T18:54:24.963Z,96578.75
2022-12-18T18:57:30.531Z,96572.34
2022-12-18T19:00:33.848Z,96578.50
2022-12-18T19:03:39.548Z,96591.56
2022-12-18T19:06:44.118Z,96592.38
2022-12-18T19:09:51.954Z,96586.25
2022-12-18T19:13:12.439Z,96591.00
2022-12-18T19:16:15.616Z,96606.50
2022-12-18T19:19:23.561Z,96608.09
2022-12-18T19:22:26.912Z,96611.03
2022-12-18T19:25:40.159Z,96596.38
2022-12-18T19:28:45.026Z,96617.97
2022-12-18T19:31:48.307Z,96616.91
2022-12-18T19:34:55.081Z,96622.50
2022-12-18T19:37:58.644Z,96622.50
2022-12-18T19:41:01.674Z,96616.09
2022-12-18T19:44:08.262Z,96626.50
2022-12-18T19:47:11.601Z,96623.56
2022-12-18T19:50:16.249Z,96620.38
2022-12-18T19:53:19.392Z,96642.22
2022-12-18T19:56:25.052Z,96629.97
2022-12-18T19:59:28.082Z,96643.28
2022-12-18T20:02:31.250Z,96645.19
2022-12-18T20:05:35.895Z,96647.56
2022-12-18T20:08:39.158Z,96642.25
2022-12-18T20:11:42.817Z,96645.19
2022-12-18T20:14:45.900Z,96642.75
2022-12-18T20:17:49.551Z,96645.69
2022-12-18T20:20:54.856Z,96653.16
2022-12-18T20:24:01.376Z,96646.75
2022-12-18T20:27:04.602Z,96649.16
2022-12-18T20:30:08.972Z,96654.22
2022-12-18T20:33:12.062Z,96659.03
2022-12-18T20:36:22.418Z,96676.88
2022-12-18T20:39:27.584Z,96673.69
2022-12-18T20:42:31.452Z,96682.50
2022-12-18T20:45:34.893Z,96689.69
2022-12-18T20:48:39.031Z,96692.34
2022-12-18T20:51:43.396Z,96693.66
2022-12-18T20:54:46.544Z,96681.66
2022-12-18T20:57:49.657Z,96690.19
2022-12-18T21:01:03.252Z,96688.06
2022-12-18T21:04:06.322Z,96701.13
2022-12-18T21:07:10.968Z,96704.59
2022-12-18T21:10:13.996Z,96697.91
2022-12-18T21:13:16.990Z,96694.97
2022-12-18T21:16:21.910Z,96692.06
2022-12-18T21:19:27.215Z,96680.84
2022-12-18T21:22:31.833Z,96694.97
2022-12-18T21:25:35.254Z,96695.25
2022-12-18T21:28:38.266Z,96702.72
2022-12-18T21:31:43.395Z,96698.19
2022-12-18T21:34:48.331Z,96701.09
2022-12-18T21:37:53.014Z,96695.72
2022-12-18T21:40:56.103Z,96698.66
2022-12-18T21:44:07.136Z,96683.19
2022-12-18T21:47:20.110Z,96699.19
2022-12-18T21:50:26.220Z,96699.72
2022-12-18T21:53:30.645Z,96697.31
2022-12-18T21:56:45.905Z,96686.09
2022-12-18T21:59:49.639Z,96681.56
2022-12-18T22:03:17.743Z,96692.47
2022-12-18T22:06:15.634Z,96691.69
2022-12-18T22:09:22.240Z,96702.34
2022-12-18T22:12:43.796Z,96706.06
2022-12-18T22:15:47.742Z,96699.13
2022-12-18T22:18:50.822Z,96706.84
2022-12-18T22:21:54.955Z,96709.25
2022-12-18T22:24:59.375Z,96714.06
2022-12-18T22:28:19.743Z,96708.19
2022-12-18T22:31:22.753Z,96698.31
2022-12-18T22:34:25.908Z,96690.03
2022-12-18T22:37:29.046Z,96704.97
2022-12-18T22:40:33.489Z,96703.13
2022-12-18T22:43:36.578Z,96698.84
2022-12-18T22:46:41.865Z,96682.84
2022-12-18T22:49:44.964Z,96695.91
2022-12-18T22:52:48.010Z,96692.72
2022-12-18T22:55:52.414Z,96691.94
2022-12-18T22:58:55.828Z,96675.09
2022-12-18T23:02:01.581Z,96668.44
2022-12-18T23:05:04.942Z,96674.84
2022-12-18T23:08:08.004Z,96686.88
2022-12-18T23:11:13.726Z,96696.72
2022-12-18T23:14:18.170Z,96684.16
2022-12-18T23:17:21.256Z,96694.28
2022-12-18T23:20:24.308Z,96693.78
2022-12-18T23:23:27.428Z,96695.66
2022-12-18T23:26:32.020Z,96685.75
2022-12-18T23:29:35.105Z,96679.91
2022-12-18T23:32:39.368Z,96703.66
2022-12-18T23:35:42.423Z,96704.47
2022-12-18T23:38:50.018Z,96705.25
2022-12-18T23:41:54.451Z,96701.25
2022-12-18T23:44:57.536Z,96701.78
2022-12-18T23:48:02.132Z,96707.13
2022-12-18T23:51:07.313Z,96709.25
2022-12-18T23:54:10.387Z,96703.91
2022-12-18T23:57:15.095Z,96709.25
